Terminal Aerodrome Forecast
Issued by NWS Paducah, KY

Home | Current Version | Previous Version | Graphics & Text | Print | Product List | Glossary On
Versions: 1 2 3 4 5 6 7 8 9 10 11 12
000
FTUS43 KPAH 021720
TAFEVV
TAF
KEVV 021720Z 0218/0318 20007KT P6SM FEW150
     FM030100 20003KT P6SM SCT100
     FM031500 25008KT P6SM SCT100=

USA.gov is the U.S. government's official web portal to all federal, state and local government web resources and services.